createdAt,value
2024-02-13T00:00:13.602Z,603.00
2024-02-13T00:01:13.691Z,605.00
2024-02-13T00:02:13.650Z,605.00
2024-02-13T00:03:13.730Z,605.00
2024-02-13T00:04:13.682Z,608.00
2024-02-13T00:05:13.757Z,610.00
2024-02-13T00:06:13.702Z,607.00
2024-02-13T00:07:13.707Z,607.00
2024-02-13T00:08:13.948Z,605.00
2024-02-13T00:09:13.737Z,605.00
2024-02-13T00:10:13.718Z,605.00
2024-02-13T00:11:13.848Z,606.00
2024-02-13T00:12:13.688Z,607.00
2024-02-13T00:13:13.743Z,607.00
2024-02-13T00:14:13.797Z,607.00
2024-02-13T00:15:13.763Z,607.00
2024-02-13T00:16:13.773Z,607.00
2024-02-13T00:17:13.781Z,606.00
2024-02-13T00:18:13.870Z,604.00
2024-02-13T00:19:13.849Z,609.00
2024-02-13T00:20:13.795Z,609.00
2024-02-13T00:21:13.805Z,602.00
2024-02-13T00:22:13.808Z,606.00
2024-02-13T00:23:13.853Z,609.00
2024-02-13T00:24:13.845Z,604.00
2024-02-13T00:25:13.913Z,607.00
2024-02-13T00:26:13.904Z,607.00
2024-02-13T00:27:13.858Z,609.00
2024-02-13T00:28:13.842Z,606.00
2024-02-13T00:29:13.842Z,608.00
2024-02-13T00:30:13.890Z,605.00
2024-02-13T00:31:13.899Z,607.00
2024-02-13T00:32:13.906Z,604.00
2024-02-13T00:33:13.967Z,609.00
2024-02-13T00:34:13.907Z,606.00
2024-02-13T00:35:13.922Z,606.00
2024-02-13T00:36:13.908Z,610.00
2024-02-13T00:37:13.923Z,603.00
2024-02-13T00:38:13.954Z,608.00
2024-02-13T00:39:13.916Z,611.00
2024-02-13T00:40:13.927Z,603.00
2024-02-13T00:41:13.976Z,606.00
2024-02-13T00:42:13.974Z,606.00
2024-02-13T00:43:13.933Z,609.00
2024-02-13T00:44:13.983Z,606.00
2024-02-13T00:45:13.965Z,610.00
2024-02-13T00:46:14.130Z,606.00
2024-02-13T00:47:13.990Z,607.00
2024-02-13T00:48:14.076Z,608.00
2024-02-13T00:49:14.022Z,609.00
2024-02-13T00:50:14.073Z,609.00
2024-02-13T00:51:14.016Z,602.00
2024-02-13T00:52:14.031Z,607.00
2024-02-13T00:53:14.036Z,606.00
2024-02-13T00:54:14.039Z,607.00
2024-02-13T00:55:14.018Z,611.00
2024-02-13T00:56:14.136Z,608.00
2024-02-13T00:57:14.102Z,609.00
2024-02-13T00:58:14.099Z,606.00
2024-02-13T00:59:14.247Z,605.00
2024-02-13T01:00:14.180Z,607.00
2024-02-13T01:01:14.367Z,610.00
2024-02-13T01:02:14.241Z,606.00
2024-02-13T01:03:14.140Z,606.00
2024-02-13T01:04:14.201Z,606.00
2024-02-13T01:05:14.289Z,609.00
2024-02-13T01:06:14.222Z,606.00
2024-02-13T01:07:14.216Z,610.00
2024-02-13T01:08:14.235Z,608.00
2024-02-13T01:09:14.214Z,611.00
2024-02-13T01:10:14.256Z,607.00
2024-02-13T01:11:14.286Z,607.00
2024-02-13T01:12:14.267Z,613.00
2024-02-13T01:13:14.279Z,607.00
2024-02-13T01:14:14.298Z,605.00
2024-02-13T01:15:14.299Z,608.00
2024-02-13T01:16:14.332Z,609.00
2024-02-13T01:17:14.391Z,608.00
2024-02-13T01:18:14.381Z,612.00
2024-02-13T01:19:14.727Z,603.00
2024-02-13T01:20:14.373Z,606.00
2024-02-13T01:21:14.378Z,610.00
2024-02-13T01:22:14.368Z,608.00
2024-02-13T01:23:14.435Z,609.00
2024-02-13T01:24:14.405Z,609.00
2024-02-13T01:25:14.413Z,610.00
2024-02-13T01:26:14.479Z,605.00
2024-02-13T01:27:14.455Z,610.00
2024-02-13T01:28:14.450Z,607.00
2024-02-13T01:29:14.520Z,610.00
2024-02-13T01:30:14.508Z,609.00
2024-02-13T01:31:14.540Z,605.00
2024-02-13T01:32:14.563Z,607.00
2024-02-13T01:33:14.745Z,610.00
2024-02-13T01:34:14.681Z,609.00
2024-02-13T01:35:14.824Z,608.00
2024-02-13T01:36:14.562Z,606.00
2024-02-13T01:37:14.684Z,611.00
2024-02-13T01:38:14.642Z,609.00
2024-02-13T01:39:14.646Z,611.00
2024-02-13T01:40:14.671Z,610.00
2024-02-13T01:41:14.739Z,609.00
2024-02-13T01:42:14.712Z,611.00
2024-02-13T01:43:14.729Z,608.00
2024-02-13T01:44:14.835Z,610.00
2024-02-13T01:45:14.787Z,610.00
2024-02-13T01:46:14.781Z,608.00
2024-02-13T01:47:14.882Z,606.00
2024-02-13T01:48:14.942Z,606.00
2024-02-13T01:49:14.865Z,610.00
2024-02-13T01:50:14.937Z,609.00
2024-02-13T01:51:14.890Z,611.00
2024-02-13T01:52:14.927Z,610.00
2024-02-13T01:53:14.985Z,610.00
2024-02-13T01:54:14.891Z,609.00
2024-02-13T01:55:14.934Z,609.00
2024-02-13T01:56:14.988Z,608.00
2024-02-13T01:57:14.969Z,611.00
2024-02-13T01:58:14.979Z,610.00
2024-02-13T01:59:15.021Z,607.00
2024-02-13T02:00:15.072Z,610.00
2024-02-13T02:01:15.070Z,607.00
2024-02-13T02:02:15.113Z,611.00
2024-02-13T02:03:15.138Z,610.00
2024-02-13T02:04:15.255Z,612.00
2024-02-13T02:05:15.388Z,612.00
2024-02-13T02:06:15.277Z,613.00
2024-02-13T02:07:15.224Z,611.00
2024-02-13T02:08:15.395Z,611.00
2024-02-13T02:09:15.240Z,611.00
2024-02-13T02:10:15.280Z,611.00
2024-02-13T02:11:15.345Z,608.00
2024-02-13T02:12:15.291Z,609.00
2024-02-13T02:13:15.347Z,611.00
2024-02-13T02:14:15.394Z,612.00
2024-02-13T02:15:15.399Z,610.00
2024-02-13T02:16:15.391Z,613.00
2024-02-13T02:17:15.463Z,612.00
2024-02-13T02:18:15.578Z,609.00
2024-02-13T02:19:15.760Z,611.00
2024-02-13T02:20:15.516Z,613.00
2024-02-13T02:21:15.488Z,612.00
2024-02-13T02:22:15.527Z,611.00
2024-02-13T02:23:15.633Z,613.00
2024-02-13T02:24:15.609Z,610.00
2024-02-13T02:25:15.608Z,608.00
2024-02-13T02:26:15.602Z,611.00
2024-02-13T02:27:15.718Z,612.00
2024-02-13T02:28:15.690Z,610.00
2024-02-13T02:29:15.744Z,611.00
2024-02-13T02:30:15.705Z,610.00
2024-02-13T02:31:15.746Z,610.00
2024-02-13T02:32:15.795Z,612.00
2024-02-13T02:33:16.102Z,610.00
2024-02-13T02:34:15.899Z,611.00
2024-02-13T02:35:15.863Z,610.00
2024-02-13T02:36:15.943Z,608.00
2024-02-13T02:37:15.886Z,612.00
2024-02-13T02:38:15.983Z,611.00
2024-02-13T02:39:15.950Z,613.00
2024-02-13T02:40:16.020Z,611.00
2024-02-13T02:41:16.135Z,612.00
2024-02-13T02:42:16.044Z,612.00
2024-02-13T02:43:16.123Z,613.00
2024-02-13T02:44:16.175Z,614.00
2024-02-13T02:45:16.098Z,611.00
2024-02-13T02:46:16.168Z,612.00
2024-02-13T02:47:16.252Z,610.00
2024-02-13T02:48:16.540Z,611.00
2024-02-13T02:49:16.291Z,613.00
2024-02-13T02:50:16.335Z,613.00
2024-02-13T02:51:16.293Z,612.00
2024-02-13T02:52:16.342Z,612.00
2024-02-13T02:53:19.205Z,613.00
2024-02-13T02:54:16.358Z,613.00
2024-02-13T02:55:16.390Z,613.00
2024-02-13T02:56:16.421Z,613.00
2024-02-13T02:57:16.357Z,614.00
2024-02-13T02:58:16.397Z,613.00
2024-02-13T02:59:16.380Z,611.00
2024-02-13T03:00:16.412Z,613.00
2024-02-13T03:01:16.398Z,613.00
2024-02-13T03:02:16.470Z,612.00
2024-02-13T03:03:16.431Z,610.00
2024-02-13T03:04:16.411Z,611.00
2024-02-13T03:05:16.401Z,613.00
2024-02-13T03:06:16.465Z,611.00
2024-02-13T03:07:16.414Z,611.00
2024-02-13T03:08:16.452Z,612.00
2024-02-13T03:09:16.404Z,611.00
2024-02-13T03:10:16.432Z,612.00
2024-02-13T03:11:16.415Z,613.00
2024-02-13T03:12:16.403Z,612.00
2024-02-13T03:13:16.396Z,611.00
2024-02-13T03:14:16.436Z,613.00
2024-02-13T03:15:16.407Z,611.00
2024-02-13T03:16:16.409Z,611.00
2024-02-13T03:17:16.439Z,611.00
2024-02-13T03:18:16.641Z,611.00
2024-02-13T03:19:16.443Z,611.00
2024-02-13T03:20:16.467Z,610.00
2024-02-13T03:21:16.398Z,612.00
2024-02-13T03:22:16.392Z,611.00
2024-02-13T03:23:16.414Z,610.00
2024-02-13T03:24:16.399Z,613.00
2024-02-13T03:25:16.498Z,611.00
2024-02-13T03:26:16.498Z,613.00
2024-02-13T03:27:16.426Z,612.00
2024-02-13T03:28:16.407Z,611.00
2024-02-13T03:29:16.430Z,612.00
2024-02-13T03:30:16.453Z,613.00
2024-02-13T03:31:16.436Z,610.00
2024-02-13T03:32:16.461Z,612.00
2024-02-13T03:33:16.520Z,614.00
2024-02-13T03:34:16.485Z,609.00
2024-02-13T03:35:16.445Z,612.00
2024-02-13T03:36:16.432Z,612.00
2024-02-13T03:37:16.401Z,612.00
2024-02-13T03:38:16.520Z,612.00
2024-02-13T03:39:16.425Z,612.00
2024-02-13T03:40:16.475Z,613.00
2024-02-13T03:41:16.408Z,611.00
2024-02-13T03:42:16.444Z,612.00
2024-02-13T03:43:16.454Z,612.00
2024-02-13T03:44:16.439Z,611.00
2024-02-13T03:45:16.536Z,612.00
2024-02-13T03:46:16.549Z,610.00
2024-02-13T03:47:16.564Z,613.00
2024-02-13T03:48:16.721Z,612.00
2024-02-13T03:49:16.643Z,612.00
2024-02-13T03:50:16.692Z,613.00
2024-02-13T03:51:16.716Z,613.00
2024-02-13T03:52:16.730Z,613.00
2024-02-13T03:53:16.821Z,613.00
2024-02-13T03:54:16.838Z,614.00
2024-02-13T03:55:16.847Z,613.00
2024-02-13T03:56:16.956Z,614.00
2024-02-13T03:57:16.933Z,613.00
2024-02-13T03:58:16.945Z,611.00
2024-02-13T03:59:17.085Z,611.00
2024-02-13T04:00:17.004Z,614.00
2024-02-13T04:01:17.058Z,612.00
2024-02-13T04:02:17.154Z,614.00
2024-02-13T04:03:17.123Z,612.00
2024-02-13T04:04:17.224Z,612.00
2024-02-13T04:05:17.281Z,612.00
2024-02-13T04:06:17.349Z,613.00
2024-02-13T04:07:17.336Z,612.00
2024-02-13T04:08:17.349Z,612.00
2024-02-13T04:09:17.383Z,612.00
2024-02-13T04:10:17.456Z,612.00
2024-02-13T04:11:17.529Z,611.00
2024-02-13T04:12:17.533Z,614.00
2024-02-13T04:13:17.555Z,611.00
2024-02-13T04:14:17.648Z,613.00
2024-02-13T04:15:17.642Z,614.00
2024-02-13T04:16:17.685Z,612.00
2024-02-13T04:17:17.769Z,611.00
2024-02-13T04:18:17.811Z,613.00
2024-02-13T04:19:17.814Z,613.00
2024-02-13T04:20:18.007Z,613.00
2024-02-13T04:21:17.885Z,612.00
2024-02-13T04:22:17.967Z,613.00
2024-02-13T04:23:18.093Z,612.00
2024-02-13T04:24:18.057Z,612.00
2024-02-13T04:25:18.043Z,611.00
2024-02-13T04:26:35.709Z,600.00
2024-02-13T04:27:26.228Z,600.00
2024-02-13T04:28:25.193Z,600.00
2024-02-13T04:29:25.249Z,600.00
2024-02-13T04:30:25.198Z,600.00
2024-02-13T04:31:32.346Z,600.00
2024-02-13T04:32:32.434Z,600.00
2024-02-13T04:33:32.448Z,600.00
2024-02-13T04:34:32.610Z,600.00
2024-02-13T04:35:32.371Z,600.00
2024-02-13T04:36:32.359Z,601.00
2024-02-13T04:37:32.335Z,600.00
2024-02-13T04:38:32.356Z,601.00
2024-02-13T04:39:32.326Z,601.00
2024-02-13T04:40:32.332Z,600.00
2024-02-13T04:41:32.343Z,601.00
2024-02-13T04:42:32.369Z,600.00
2024-02-13T04:43:32.358Z,602.00
2024-02-13T04:44:32.396Z,600.00
2024-02-13T04:45:32.373Z,601.00
2024-02-13T04:46:32.377Z,600.00
2024-02-13T04:47:32.518Z,601.00
2024-02-13T04:48:32.586Z,601.00
2024-02-13T04:49:32.412Z,603.00
2024-02-13T04:50:32.369Z,602.00
2024-02-13T04:51:32.368Z,602.00
2024-02-13T04:52:32.337Z,600.00
2024-02-13T04:53:32.389Z,600.00
2024-02-13T04:54:32.372Z,600.00
2024-02-13T04:55:32.367Z,600.00
2024-02-13T04:56:32.391Z,600.00
2024-02-13T04:57:32.347Z,602.00
2024-02-13T04:58:32.355Z,603.00
2024-02-13T04:59:32.434Z,601.00
2024-02-13T05:00:32.427Z,601.00
2024-02-13T05:01:32.519Z,600.00
2024-02-13T05:02:32.607Z,601.00
2024-02-13T05:03:32.666Z,601.00
2024-02-13T05:04:33.782Z,600.00
2024-02-13T05:05:32.749Z,600.00
2024-02-13T05:06:32.834Z,601.00
2024-02-13T05:07:32.822Z,601.00
2024-02-13T05:08:32.929Z,600.00
2024-02-13T05:09:32.946Z,600.00
2024-02-13T05:10:32.966Z,600.00
2024-02-13T05:11:33.101Z,601.00
2024-02-13T05:12:33.137Z,600.00
2024-02-13T05:13:33.180Z,601.00
2024-02-13T05:14:33.264Z,600.00
2024-02-13T05:15:33.287Z,600.00
2024-02-13T05:16:33.404Z,601.00
2024-02-13T05:17:33.564Z,600.00
2024-02-13T05:18:33.707Z,600.00
2024-02-13T05:19:33.590Z,600.00
2024-02-13T05:20:33.610Z,600.00
2024-02-13T05:21:33.650Z,600.00
2024-02-13T05:22:33.700Z,600.00
2024-02-13T05:23:33.812Z,600.00
2024-02-13T05:24:33.820Z,600.00
2024-02-13T05:25:33.827Z,600.00
2024-02-13T05:26:34.036Z,600.00
2024-02-13T05:27:33.958Z,601.00
2024-02-13T05:28:33.990Z,599.00
2024-02-13T05:29:34.060Z,600.00
2024-02-13T05:30:34.099Z,601.00
2024-02-13T05:31:34.140Z,601.00
2024-02-13T05:32:34.302Z,600.00
2024-02-13T05:33:34.349Z,601.00
2024-02-13T05:34:34.315Z,600.00
2024-02-13T05:35:34.419Z,600.00
2024-02-13T05:36:34.458Z,600.00
2024-02-13T05:37:34.473Z,600.00
2024-02-13T05:38:34.552Z,600.00
2024-02-13T05:39:34.635Z,600.00
2024-02-13T05:40:37.098Z,601.00
2024-02-13T05:41:34.734Z,600.00
2024-02-13T05:42:34.700Z,600.00
2024-02-13T05:43:34.677Z,600.00
2024-02-13T05:44:34.738Z,600.00
2024-02-13T05:45:34.677Z,601.00
2024-02-13T05:46:34.701Z,600.00
2024-02-13T05:47:34.825Z,600.00
2024-02-13T05:48:34.697Z,600.00
2024-02-13T05:49:34.719Z,602.00
2024-02-13T05:50:34.714Z,601.00
2024-02-13T05:51:34.657Z,601.00
2024-02-13T05:52:34.669Z,600.00
2024-02-13T05:53:34.754Z,602.00
2024-02-13T05:54:34.777Z,602.00
2024-02-13T05:55:34.694Z,600.00
2024-02-13T05:56:34.686Z,600.00
2024-02-13T05:57:34.710Z,602.00
2024-02-13T05:58:34.713Z,600.00
2024-02-13T05:59:34.693Z,600.00
2024-02-13T06:00:34.774Z,601.00
2024-02-13T06:01:34.717Z,601.00
2024-02-13T06:02:34.775Z,602.00
2024-02-13T06:03:34.769Z,600.00
2024-02-13T06:04:34.752Z,601.00
2024-02-13T06:05:34.985Z,601.00
2024-02-13T06:06:34.842Z,600.00
2024-02-13T06:07:34.705Z,600.00
2024-02-13T06:08:34.810Z,600.00
2024-02-13T06:09:34.731Z,602.00
2024-02-13T06:10:34.755Z,601.00
2024-02-13T06:11:34.838Z,604.00
2024-02-13T06:12:34.832Z,601.00
2024-02-13T06:13:35.169Z,602.00
2024-02-13T06:14:34.937Z,601.00
2024-02-13T06:15:35.040Z,600.00
2024-02-13T06:16:35.080Z,602.00
2024-02-13T06:17:35.266Z,600.00
2024-02-13T06:18:35.428Z,602.00
2024-02-13T06:19:35.307Z,600.00
2024-02-13T06:20:35.349Z,601.00
2024-02-13T06:21:35.365Z,601.00
2024-02-13T06:22:35.493Z,602.00
2024-02-13T06:23:35.599Z,600.00
2024-02-13T06:24:35.604Z,600.00
2024-02-13T06:25:35.665Z,604.00
2024-02-13T06:26:35.761Z,601.00
2024-02-13T06:27:35.754Z,602.00
2024-02-13T06:28:35.862Z,601.00
2024-02-13T06:29:35.938Z,601.00
2024-02-13T06:30:35.946Z,602.00
2024-02-13T06:31:36.019Z,602.00
2024-02-13T06:32:36.156Z,601.00
2024-02-13T06:33:36.319Z,602.00
2024-02-13T06:34:36.225Z,605.00
2024-02-13T06:35:36.255Z,601.00
2024-02-13T06:36:36.362Z,603.00
2024-02-13T06:37:36.376Z,604.00
2024-02-13T06:38:36.732Z,602.00
2024-02-13T06:39:36.528Z,602.00
2024-02-13T06:40:36.656Z,600.00
2024-02-13T06:41:36.682Z,604.00
2024-02-13T06:42:36.700Z,602.00
2024-02-13T06:43:36.757Z,602.00
2024-02-13T06:44:36.898Z,604.00
2024-02-13T06:45:36.893Z,603.00
2024-02-13T06:46:37.043Z,605.00
2024-02-13T06:47:37.075Z,604.00
2024-02-13T06:48:37.149Z,603.00
2024-02-13T06:49:37.195Z,603.00
2024-02-13T06:50:37.274Z,604.00
2024-02-13T06:51:37.318Z,604.00
2024-02-13T06:52:37.345Z,606.00
2024-02-13T06:53:37.458Z,603.00
2024-02-13T06:54:37.489Z,606.00
2024-02-13T06:55:37.570Z,606.00
2024-02-13T06:56:37.707Z,603.00
2024-02-13T06:57:37.743Z,605.00
2024-02-13T06:58:37.776Z,608.00
2024-02-13T06:59:37.844Z,604.00
2024-02-13T07:00:37.928Z,605.00
2024-02-13T07:01:37.944Z,606.00
2024-02-13T07:02:38.223Z,606.00
2024-02-13T07:03:38.157Z,607.00
2024-02-13T07:04:38.145Z,609.00
2024-02-13T07:05:38.216Z,608.00
2024-02-13T07:06:48.437Z,608.00
2024-02-13T07:07:46.226Z,608.00
2024-02-13T07:08:39.422Z,608.00
2024-02-13T07:09:38.407Z,609.00
2024-02-13T07:10:38.353Z,610.00
2024-02-13T07:11:38.290Z,612.00
2024-02-13T07:12:38.268Z,612.00
2024-02-13T07:13:38.233Z,611.00
2024-02-13T07:14:38.316Z,612.00
2024-02-13T07:15:38.406Z,613.00
2024-02-13T07:16:41.013Z,611.00
2024-02-13T07:17:48.523Z,612.00
2024-02-13T07:18:39.385Z,612.00
2024-02-13T07:19:38.363Z,612.00
2024-02-13T07:20:38.336Z,613.00
2024-02-13T07:21:38.290Z,613.00
2024-02-13T07:22:38.432Z,614.00
2024-02-13T07:23:38.302Z,614.00
2024-02-13T07:24:38.270Z,616.00
2024-02-13T07:25:38.299Z,614.00
2024-02-13T07:26:38.295Z,614.00
2024-02-13T07:27:38.309Z,615.00
2024-02-13T07:28:38.412Z,613.00
2024-02-13T07:29:38.457Z,616.00
2024-02-13T07:30:38.507Z,615.00
2024-02-13T07:31:38.565Z,615.00
2024-02-13T07:32:38.677Z,614.00
2024-02-13T07:33:38.853Z,616.00
2024-02-13T07:34:38.758Z,616.00
2024-02-13T07:35:38.838Z,616.00
2024-02-13T07:36:38.879Z,617.00
2024-02-13T07:37:38.913Z,615.00
2024-02-13T07:38:39.037Z,616.00
2024-02-13T07:39:39.088Z,616.00
2024-02-13T07:40:39.139Z,616.00
2024-02-13T07:41:39.226Z,618.00
2024-02-13T07:42:39.250Z,616.00
2024-02-13T07:43:39.326Z,615.00
2024-02-13T07:44:39.409Z,618.00
2024-02-13T07:45:39.441Z,618.00
2024-02-13T07:46:39.474Z,618.00
2024-02-13T07:47:39.639Z,616.00
2024-02-13T07:48:40.152Z,618.00
2024-02-13T07:49:39.678Z,618.00
2024-02-13T07:50:39.717Z,617.00
2024-02-13T07:51:39.787Z,619.00
2024-02-13T07:52:39.940Z,618.00
2024-02-13T07:53:39.999Z,618.00
2024-02-13T07:54:40.016Z,619.00
2024-02-13T07:55:40.037Z,619.00
2024-02-13T07:56:40.193Z,620.00
2024-02-13T07:57:40.203Z,620.00
2024-02-13T07:58:40.243Z,620.00
2024-02-13T07:59:40.339Z,620.00
2024-02-13T08:00:40.443Z,621.00
2024-02-13T08:01:40.437Z,622.00
2024-02-13T08:02:40.550Z,622.00
2024-02-13T08:03:40.620Z,621.00
2024-02-13T08:04:40.686Z,621.00
2024-02-13T08:05:40.892Z,621.00
2024-02-13T08:06:40.799Z,620.00
2024-02-13T08:07:40.829Z,622.00
2024-02-13T08:08:40.863Z,620.00
2024-02-13T08:09:40.936Z,622.00
2024-02-13T08:10:41.002Z,622.00
2024-02-13T08:11:41.088Z,622.00
2024-02-13T08:12:41.091Z,622.00
2024-02-13T08:13:41.156Z,622.00
2024-02-13T08:14:41.358Z,624.00
2024-02-13T08:15:41.265Z,624.00
2024-02-13T08:16:41.407Z,624.00
2024-02-13T08:17:41.598Z,624.00
2024-02-13T08:18:41.599Z,623.00
2024-02-13T08:19:42.118Z,625.00
2024-02-13T08:20:41.678Z,625.00
2024-02-13T08:21:41.681Z,626.00
2024-02-13T08:22:41.737Z,625.00
2024-02-13T08:23:41.820Z,625.00
2024-02-13T08:24:41.969Z,627.00
2024-02-13T08:25:41.939Z,628.00
2024-02-13T08:26:42.040Z,627.00
2024-02-13T08:27:42.009Z,628.00
2024-02-13T08:28:42.075Z,627.00
2024-02-13T08:29:42.161Z,628.00
2024-02-13T08:30:42.197Z,627.00
2024-02-13T08:31:42.272Z,629.00
2024-02-13T08:32:42.537Z,628.00
2024-02-13T08:33:42.695Z,629.00
2024-02-13T08:34:42.578Z,631.00
2024-02-13T08:35:42.668Z,631.00
2024-02-13T08:36:42.503Z,631.00
2024-02-13T08:37:42.553Z,632.00
2024-02-13T08:38:42.625Z,633.00
2024-02-13T08:39:42.637Z,631.00
2024-02-13T08:40:42.714Z,630.00
2024-02-13T08:41:42.789Z,627.00
2024-02-13T08:42:42.754Z,633.00
2024-02-13T08:43:42.813Z,635.00
2024-02-13T08:44:42.861Z,634.00
2024-02-13T08:45:42.926Z,634.00
2024-02-13T08:46:42.875Z,633.00
2024-02-13T08:47:43.085Z,635.00
2024-02-13T08:48:43.209Z,631.00
2024-02-13T08:49:43.046Z,633.00
2024-02-13T08:50:43.052Z,630.00
2024-02-13T08:51:43.165Z,635.00
2024-02-13T08:52:43.025Z,637.00
2024-02-13T08:53:43.125Z,633.00
2024-02-13T08:54:43.037Z,638.00
2024-02-13T08:55:43.078Z,635.00
2024-02-13T08:56:43.123Z,638.00
2024-02-13T08:57:43.129Z,636.00
2024-02-13T08:58:43.156Z,638.00
2024-02-13T08:59:43.221Z,640.00
2024-02-13T09:00:43.196Z,637.00
2024-02-13T09:01:43.181Z,640.00
2024-02-13T09:02:43.279Z,639.00
2024-02-13T09:03:43.239Z,640.00
2024-02-13T09:04:43.323Z,638.00
2024-02-13T09:05:43.377Z,637.00
2024-02-13T09:06:43.413Z,640.00
2024-02-13T09:07:43.301Z,639.00
2024-02-13T09:08:43.647Z,642.00
2024-02-13T09:09:43.294Z,641.00
2024-02-13T09:10:43.319Z,639.00
2024-02-13T09:11:43.362Z,641.00
2024-02-13T09:12:43.406Z,637.00
2024-02-13T09:13:43.507Z,642.00
2024-02-13T09:14:43.470Z,641.00
2024-02-13T09:15:43.389Z,643.00
2024-02-13T09:16:43.424Z,638.00
2024-02-13T09:17:43.526Z,640.00
2024-02-13T09:18:43.636Z,639.00
2024-02-13T09:19:43.484Z,644.00
2024-02-13T09:20:43.445Z,640.00
2024-02-13T09:21:43.470Z,637.00
2024-02-13T09:22:43.472Z,634.00
2024-02-13T09:23:43.526Z,639.00
2024-02-13T09:24:43.469Z,637.00
2024-02-13T09:25:43.545Z,637.00
2024-02-13T09:26:43.635Z,634.00
2024-02-13T09:27:43.613Z,638.00
2024-02-13T09:28:43.728Z,633.00
2024-02-13T09:29:43.820Z,632.00
2024-02-13T09:30:43.889Z,633.00
2024-02-13T09:31:46.349Z,634.00
2024-02-13T09:32:44.009Z,631.00
2024-02-13T09:33:44.065Z,632.00
2024-02-13T09:34:43.941Z,633.00
2024-02-13T09:35:43.974Z,636.00
2024-02-13T09:36:43.879Z,637.00
2024-02-13T09:37:44.685Z,641.00
2024-02-13T09:38:44.039Z,641.00
2024-02-13T09:39:43.949Z,643.00
2024-02-13T09:40:43.931Z,643.00
2024-02-13T09:41:43.975Z,641.00
2024-02-13T09:42:43.907Z,639.00
2024-02-13T09:43:45.867Z,639.00
2024-02-13T09:44:43.941Z,633.00
2024-02-13T09:45:43.919Z,636.00
2024-02-13T09:46:43.884Z,634.00
2024-02-13T09:47:44.019Z,635.00
2024-02-13T09:48:44.001Z,639.00
2024-02-13T09:49:44.751Z,636.00
2024-02-13T09:50:43.996Z,636.00
2024-02-13T09:51:43.932Z,637.00
2024-02-13T09:52:43.878Z,634.00
2024-02-13T09:53:44.130Z,638.00
2024-02-13T09:54:44.149Z,636.00
2024-02-13T09:55:44.400Z,639.00
2024-02-13T09:56:44.048Z,638.00
2024-02-13T09:57:43.923Z,641.00
2024-02-13T09:58:43.906Z,642.00
2024-02-13T09:59:43.944Z,643.00
2024-02-13T10:00:43.921Z,646.00
2024-02-13T10:01:43.938Z,650.00
2024-02-13T10:02:44.033Z,647.00
2024-02-13T10:03:44.187Z,646.00
2024-02-13T10:04:44.008Z,652.00
2024-02-13T10:05:43.982Z,647.00
2024-02-13T10:06:43.946Z,647.00
2024-02-13T10:07:45.355Z,646.00
2024-02-13T10:08:44.003Z,650.00
2024-02-13T10:09:43.952Z,652.00
2024-02-13T10:10:43.970Z,656.00
2024-02-13T10:11:43.991Z,658.00
2024-02-13T10:12:43.920Z,651.00
2024-02-13T10:13:47.237Z,658.00
2024-02-13T10:14:43.960Z,658.00
2024-02-13T10:15:44.015Z,657.00
2024-02-13T10:16:43.933Z,659.00
2024-02-13T10:17:43.995Z,660.00
2024-02-13T10:18:44.086Z,662.00
2024-02-13T10:19:43.972Z,663.00
2024-02-13T10:20:43.979Z,662.00
2024-02-13T10:21:43.979Z,662.00
2024-02-13T10:22:43.926Z,664.00
2024-02-13T10:23:44.132Z,663.00
2024-02-13T10:24:43.962Z,665.00
2024-02-13T10:25:43.929Z,666.00
2024-02-13T10:26:44.072Z,664.00
2024-02-13T10:27:43.929Z,672.00
2024-02-13T10:28:43.985Z,666.00
2024-02-13T10:29:43.991Z,675.00
2024-02-13T10:30:43.929Z,671.00
2024-02-13T10:31:46.396Z,675.00
2024-02-13T10:32:44.035Z,682.00
2024-02-13T10:33:43.997Z,683.00
2024-02-13T10:34:44.047Z,678.00
2024-02-13T10:35:44.038Z,669.00
2024-02-13T10:36:43.932Z,666.00
2024-02-13T10:37:43.930Z,678.00
2024-02-13T10:38:43.981Z,661.00
2024-02-13T10:39:43.960Z,681.00
2024-02-13T10:40:43.952Z,692.00
2024-02-13T10:41:43.972Z,665.00
2024-02-13T10:42:43.951Z,665.00
2024-02-13T10:43:43.988Z,666.00
2024-02-13T10:44:44.049Z,672.00
2024-02-13T10:45:43.973Z,669.00
2024-02-13T10:46:43.998Z,669.00
2024-02-13T10:47:44.007Z,679.00
2024-02-13T10:48:44.046Z,684.00
2024-02-13T10:49:44.282Z,690.00
2024-02-13T10:50:44.050Z,696.00
2024-02-13T10:51:43.969Z,678.00
2024-02-13T10:52:43.969Z,688.00
2024-02-13T10:53:44.051Z,693.00
2024-02-13T10:54:43.973Z,687.00
2024-02-13T10:55:44.308Z,697.00
2024-02-13T10:56:44.043Z,705.00
2024-02-13T10:57:43.964Z,703.00
2024-02-13T10:58:43.933Z,707.00
2024-02-13T10:59:44.016Z,707.00
2024-02-13T11:00:44.038Z,706.00
2024-02-13T11:01:44.078Z,699.00
2024-02-13T11:02:43.991Z,705.00
2024-02-13T11:03:44.346Z,700.00
2024-02-13T11:04:43.960Z,707.00
2024-02-13T11:05:44.048Z,712.00
2024-02-13T11:06:44.056Z,706.00
2024-02-13T11:07:44.111Z,711.00
2024-02-13T11:08:43.977Z,714.00
2024-02-13T11:09:43.998Z,711.00
2024-02-13T11:10:43.994Z,711.00
2024-02-13T11:11:44.023Z,722.00
2024-02-13T11:12:43.963Z,717.00
2024-02-13T11:13:43.989Z,726.00
2024-02-13T11:14:43.969Z,735.00
2024-02-13T11:15:44.024Z,732.00
2024-02-13T11:16:43.995Z,734.00
2024-02-13T11:17:44.084Z,734.00
2024-02-13T11:18:44.100Z,739.00
2024-02-13T11:19:46.284Z,749.00
2024-02-13T11:20:44.059Z,743.00
2024-02-13T11:21:43.975Z,748.00
2024-02-13T11:22:43.992Z,757.00
2024-02-13T11:23:44.031Z,758.00
2024-02-13T11:24:43.977Z,755.00
2024-02-13T11:25:44.131Z,758.00
2024-02-13T11:26:44.029Z,746.00
2024-02-13T11:27:44.218Z,764.00
2024-02-13T11:28:44.003Z,766.00
2024-02-13T11:29:44.017Z,768.00
2024-02-13T11:30:43.987Z,768.00
2024-02-13T11:31:45.539Z,760.00
2024-02-13T11:32:44.270Z,761.00
2024-02-13T11:33:44.245Z,761.00
2024-02-13T11:34:44.662Z,765.00
2024-02-13T11:35:44.107Z,760.00
2024-02-13T11:36:44.049Z,762.00
2024-02-13T11:37:44.026Z,766.00
2024-02-13T11:38:44.046Z,779.00
2024-02-13T11:39:44.031Z,759.00
2024-02-13T11:40:43.989Z,766.00
2024-02-13T11:41:44.071Z,771.00
2024-02-13T11:42:43.996Z,761.00
2024-02-13T11:43:44.009Z,765.00
2024-02-13T11:44:43.993Z,759.00
2024-02-13T11:45:44.024Z,765.00
2024-02-13T11:46:44.222Z,769.00
2024-02-13T11:47:44.044Z,778.00
2024-02-13T11:48:44.218Z,779.00
2024-02-13T11:49:44.203Z,764.00
2024-02-13T11:50:44.046Z,768.00
2024-02-13T11:51:44.013Z,757.00
2024-02-13T11:52:44.040Z,762.00
2024-02-13T11:53:44.127Z,774.00
2024-02-13T11:54:44.035Z,769.00
2024-02-13T11:55:43.997Z,768.00
2024-02-13T11:56:44.116Z,772.00
2024-02-13T11:57:44.042Z,769.00
2024-02-13T11:58:44.090Z,782.00
2024-02-13T11:59:44.452Z,789.00
2024-02-13T12:00:44.027Z,786.00
2024-02-13T12:01:44.040Z,774.00
2024-02-13T12:02:44.058Z,767.00
2024-02-13T12:03:44.262Z,763.00
2024-02-13T12:04:44.268Z,770.00
2024-02-13T12:05:44.149Z,757.00
2024-02-13T12:06:44.178Z,762.00
2024-02-13T12:07:44.238Z,760.00
2024-02-13T12:08:44.270Z,758.00
2024-02-13T12:09:44.208Z,773.00
2024-02-13T12:10:44.201Z,770.00
2024-02-13T12:11:44.320Z,774.00
2024-02-13T12:12:44.248Z,769.00
2024-02-13T12:13:44.275Z,770.00
2024-02-13T12:14:44.293Z,780.00
2024-02-13T12:15:44.298Z,771.00
2024-02-13T12:16:44.278Z,778.00
2024-02-13T12:17:44.327Z,782.00
2024-02-13T12:18:44.431Z,770.00
2024-02-13T12:19:44.406Z,786.00
2024-02-13T12:20:44.361Z,785.00
2024-02-13T12:21:44.406Z,776.00
2024-02-13T12:22:44.433Z,788.00
2024-02-13T12:23:44.472Z,787.00
2024-02-13T12:24:44.457Z,780.00
2024-02-13T12:25:44.443Z,783.00
2024-02-13T12:26:44.545Z,788.00
2024-02-13T12:27:44.562Z,777.00
2024-02-13T12:28:44.585Z,781.00